Date,TemperatureHighF,TemperatureAvgF,TemperatureLowF,DewpointHighF,DewpointAvgF,DewpointLowF,HumidityHigh,HumidityAvg,HumidityLow,PressureMaxIn,PressureMinIn,WindSpeedMaxMPH,WindSpeedAvgMPH,GustSpeedMaxMPH,PrecipitationSumIn
2013-3-1,44,38,34,30,28,26,79,66,53,30.05,29.98,9,4,14,0.00
2013-3-2,36,34,32,30,27,25,83,75,67,30.10,30.01,10,4,13,0.00
2013-3-3,42,31,29,28,14,-100,85,59,40,30.14,30.07,10,4,14,0.00
2013-3-4,60,44,26,37,27,18,82,53,34,30.22,30.03,6,2,10,0.00
2013-3-5,65,51,34,56,44,29,91,78,68,30.07,29.72,11,4,20,0.18
2013-3-6,43,36,30,31,26,20,86,67,56,30.23,29.97,12,5,17,0.01
2013-3-7,59,43,28,33,29,24,86,60,30,30.30,30.19,7,2,9,0.00
2013-3-8,65,46,29,36,29,26,91,57,25,30.34,30.21,10,2,14,0.00
2013-3-9,66,52,39,35,31,24,63,45,27,30.29,30.11,10,3,14,0.00
2013-3-10,69,59,49,48,41,33,68,53,46,30.15,30.00,12,5,19,0.00
2013-3-11,63,55,45,56,50,41,97,86,70,30.02,29.80,15,5,22,1.10
2013-3-12,58,46,34,41,34,31,92,67,37,30.14,29.88,9,4,16,0.09
2013-3-13,55,44,34,33,27,20,86,55,26,30.29,30.14,11,3,20,0.00
2013-3-14,55,41,29,24,20,11,68,45,17,30.42,30.26,9,3,12,0.00
2013-3-15,71,54,33,44,35,23,81,52,36,30.29,30.03,9,2,12,0.00
2013-3-16,72,60,48,47,42,39,75,54,31,30.05,29.92,9,3,14,0.00
2013-3-17,66,58,48,56,52,46,97,79,62,30.02,29.91,5,1,8,0.00
2013-3-18,74,59,51,62,56,49,97,89,64,29.95,29.73,10,3,17,0.24
2013-3-19,65,55,47,51,37,25,98,57,23,30.07,29.85,9,3,13,0.16
2013-3-20,57,47,41,30,22,-100,54,38,26,30.15,29.94,8,3,15,0.01
2013-3-21,51,41,31,28,20,9,81,47,19,30.02,29.92,10,3,14,0.00
2013-3-22,49,46,41,41,38,32,83,74,63,30.06,29.97,7,3,10,0.03
2013-3-23,58,51,44,54,47,41,97,85,79,29.98,29.64,12,4,16,0.14
2013-3-24,63,52,41,56,47,29,97,86,63,29.78,29.53,11,4,17,0.09
2013-3-25,47,40,33,29,25,21,67,56,38,30.14,29.78,11,5,19,0.08
2013-3-26,41,34,27,27,24,22,83,66,52,30.33,30.13,11,4,17,0.78
2013-3-27,54,42,27,29,25,21,79,54,34,30.40,30.27,8,3,12,0.01
2013-3-28,62,46,30,34,29,27,89,55,27,30.38,30.24,8,2,12,0.00
2013-3-29,68,50,37,40,25,-100,82,48,30,30.34,30.15,8,1,11,0.00
2013-3-30,71,59,48,56,47,-100,97,69,50,30.18,29.99,5,1,9,0.04
2013-3-31,67,60,55,59,56,54,97,88,69,30.01,29.84,6,2,11,0.07